Jacksonville, North Carolina
Current Conditions -  °F | °C
As of 9:56 AM on Wednesday 22 Oct 2014 (Local Time) from KNCA Reporting Station
Clear Clear  
Wind Chill: 57°   Ceiling: Unl
Heat Index: 57°   Visibility: 10mi
Dew Point: 44°   Wind: 10mph
Humidity: 62%   Direction: 310°NW
Pressure: 29.96"   Gusts: NA
Location:  34.75°N, 77.42°W
Report Text: KNCA 221356Z AUTO 31009KT 10SM CLR 14/07 A2996 RMK AO2 SLP147 T01390067
Loading
Personal Weather Stations






























Interactive Weather Map
Tropical Storm Tracking
New forecast layout! Learn more

10-Day Weather Forecast

Advertisements
Track Severe Weather on mobile